Portada
METAR-TAF:

METAR-TAF

Aeroports :

Springdale, Arkansas, Estats Units d'Amèrica

latitud: 36-11N, longitud: 094-07W, altitud: 412 m

Observació

L'informe es va fer fa 23 minuts, a les 13:48 UTC
Vent calma
Temperatura 2°C
Humitat 100%
Pressió 1014 hPa
Visibilitat: 16.1 km
Cel clar

METAR: KASG 181348Z 00000KT 10SM CLR 02/02 A2993

Hora: 08:11 (14:11 UTC)


TAF: manca

Observacions i pronòstics meteorològics de més de 4000 aeroports (METAR i TAF).

Les estacions disponibles són els punts grocs i vermells al mapa.

Posi el ratolí al punt desitjat per veure el nom de l'estació.

Feu clic per veure les observacions i els pronòstics meteorològics.

Per canviar el mapa: feu clic els botons verds amb una creu de color negre per apropar; al botó verd amb un guió per allunyar la imatge; o en les fletxes verdes per a mapes adjacents.


METAR-TAF: